Flight Track Log - Related Links

Times and Time Zones

All times are in EDT time to prevent confusion due to time zone crossing. See the N762NC flight status page for this flight to view local times or setup timezone preferences in your user account.

Time Position Orientation Groundspeed Altitude Reporting Facility
EDT Latitude Longitude Course Direction KTS MPH feet Rate Location/Type
Mon 07:35:48 AM 33.6500 -84.4833 12° North 194 223 3,000  Level Atlanta TRACON
Mon 07:36:54 AM 33.6833 -84.5667 296° West 258 297 5,100 2,190 Climbing Atlanta TRACON
Mon 07:37:54 AM 33.7500 -84.6000 337° Northwest 274 315 7,600 2,421 Climbing Atlanta TRACON
Mon 07:38:00 AM 34.1060 -84.3134 North  Level FlightAware Approximate
Mon 07:38:48 AM 33.8167 -84.6000 360° North 293 337 9,700  Level Atlanta TRACON
Mon 07:39:00 AM 34.2249 -84.2936 12° North  Level FlightAware Approximate
Mon 07:39:40 AM 33.8828 -84.5942 North 329 379 11,300  Level Atlanta Center
Mon 07:40:00 AM 34.3424 -84.2632 12° North  Level FlightAware Approximate
Mon 07:40:40 AM 33.9789 -84.5725 11° North 329 379 12,600  Level Atlanta Center
Mon 07:41:00 AM 34.4598 -84.2328 12° North  Level FlightAware Approximate
Mon 07:42:40 AM 34.1608 -84.4456 30° Northeast 369 425 16,000  Level Atlanta Center
Mon 07:43:40 AM 34.2531 -84.3731 33° Northeast 384 442 17,700 1,600 Climbing Atlanta Center
Mon 07:44:40 AM 34.3492 -84.3056 30° Northeast 391 450 19,200 1,350 Climbing Atlanta Center
Mon 07:45:40 AM 34.4453 -84.2631 20° North 396 456 20,400 1,350 Climbing Atlanta Center
Mon 07:46:40 AM 34.5581 -84.2456 North 397 457 21,900 1,400 Climbing Atlanta Center
Mon 07:47:40 AM 34.6728 -84.2181 11° North 414 476 23,200 1,300 Climbing Atlanta Center
Mon 07:48:40 AM 34.7814 -84.1881 13° North 408 470 24,500 1,200 Climbing Atlanta Center
Mon 07:49:40 AM 34.8983 -84.1656 North 414 476 25,600 1,100 Climbing Atlanta Center
Mon 07:50:40 AM 35.0172 -84.1353 12° North 419 482 26,700 1,000 Climbing Atlanta Center
Mon 07:51:40 AM 35.1361 -84.1047 12° North 425 489 27,600 800 Climbing Atlanta Center
Mon 07:52:40 AM 35.2550 -84.0642 16° North 430 495 28,300 900 Climbing Atlanta Center
Mon 07:53:40 AM 35.3783 -84.0336 11° North 430 495 29,400 1,000 Climbing Atlanta Center
Mon 07:54:40 AM 35.5014 -84.0031 11° North 435 501 30,300 750 Climbing Atlanta Center
Mon 07:55:40 AM 35.6222 -83.9672 14° North 440 506 30,900 350 Climbing Atlanta Center
Mon 07:56:40 AM 35.7453 -83.9364 11° North 440 506 31,000 100 Climbing Atlanta Center
Mon 07:57:40 AM 35.8706 -83.9233 North 450 518 31,100 600 Climbing Atlanta Center
Mon 07:58:40 AM 35.9872 -83.8667 21° North 444 511 32,200 1,000 Climbing Atlanta Center
Mon 07:59:40 AM 36.0978 -83.7894 29° Northeast 436 502 33,100 400 Climbing Atlanta Center
Mon 08:00:40 AM 36.2039 -83.7119 31° Northeast 442 509 33,000 -41 Descending Atlanta Center
Mon 08:02:06 AM 36.3583 -83.6047 29° Northeast 457 526 33,000  Level Indianapolis Center
Mon 08:03:07 AM 36.4675 -83.5194 32° Northeast 463 533 33,000  Level Indianapolis Center
Mon 08:04:09 AM 36.5983 -83.4364 27° Northeast 464 534 33,000  Level Indianapolis Center
Mon 08:05:10 AM 36.7111 -83.3569 29° Northeast 462 532 33,000  Level Indianapolis Center
Mon 08:06:11 AM 36.8242 -83.2786 29° Northeast 461 531 33,000  Level Indianapolis Center
Mon 08:07:13 AM 36.9386 -83.2000 29° Northeast 464 534 33,000  Level Indianapolis Center
Mon 08:08:15 AM 37.0511 -83.1125 32° Northeast 467 537 33,000  Level Indianapolis Center
Mon 08:09:16 AM 37.1667 -83.0317 29° Northeast 467 537 33,000  Level Indianapolis Center
Mon 08:10:17 AM 37.2811 -82.9519 29° Northeast 466 536 33,000  Level Indianapolis Center
Mon 08:11:19 AM 37.3925 -82.8653 32° Northeast 467 537 33,000  Level Indianapolis Center
Mon 08:12:20 AM 37.5233 -82.7644 31° Northeast 470 541 33,000 -195 Level Indianapolis Center
Mon 08:13:22 AM 37.6414 -82.6917 26° Northeast 470 541 32,600 -537 Descending Indianapolis Center
Mon 08:14:23 AM 37.7617 -82.6172 26° Northeast 477 549 31,900 -732 Descending Indianapolis Center
Mon 08:15:25 AM 37.8844 -82.5494 24° Northeast 480 552 31,100 -780 Descending Indianapolis Center
Mon 08:16:26 AM 38.0053 -82.4700 27° Northeast 486 559 30,300 -738 Descending Indianapolis Center
Mon 08:17:27 AM 38.1150 -82.3994 27° Northeast 487 560 29,600 -634 Descending Indianapolis Center
Mon 08:18:29 AM 38.2681 -82.3342 19° North 482 555 29,000 -293 Descending Indianapolis Center
Mon 08:19:30 AM 38.3939 -82.2703 22° Northeast 483 556 29,000 -146 Level Indianapolis Center
Mon 08:20:32 AM 38.5139 -82.1892 28° Northeast 487 560 28,700 -585 Descending Indianapolis Center
Mon 08:21:33 AM 38.6364 -82.1108 27° Northeast 487 560 27,800 -878 Descending Indianapolis Center
Mon 08:22:35 AM 38.7575 -82.0206 30° Northeast 495 570 26,900 -878 Descending Indianapolis Center
Mon 08:23:36 AM 38.8694 -81.9058 39° Northeast 513 590 26,000 -878 Descending Indianapolis Center
Mon 08:24:38 AM 38.9814 -81.8025 36° Northeast 496 571 25,100 -780 Descending Indianapolis Center
Mon 08:25:39 AM 39.0964 -81.7089 32° Northeast 488 562 24,400 -537 Descending Indianapolis Center
Mon 08:26:41 AM 39.2094 -81.6133 33° Northeast 483 556 24,000 -488 Descending Indianapolis Center
Mon 08:27:42 AM 39.3186 -81.5078 37° Northeast 488 562 23,400 -927 Descending Indianapolis Center
Mon 08:28:44 AM 39.4244 -81.3983 39° Northeast 485 558 22,100 -1,065 Descending Indianapolis Center
Mon 08:29:46 AM 39.5272 -81.2803 42° Northeast 490 564 21,200 -927 Descending Indianapolis Center
Mon 08:30:47 AM 39.6503 -81.1494 39° Northeast 477 549 20,200 -1,561 Descending Indianapolis Center
Mon 08:31:49 AM 39.7492 -81.0483 38° Northeast 453 521 18,000 -2,244 Descending Indianapolis Center
Mon 08:32:50 AM 39.8503 -80.9642 33° Northeast 433 498 15,600 -2,488 Descending Indianapolis Center
Mon 08:33:52 AM 39.9486 -80.8864 31° Northeast 418 481 12,900 -2,585 Descending Indianapolis Center
Mon 08:34:53 AM 40.0253 -80.7875 45° Northeast 392 451 10,300 -1,392 Descending Indianapolis Center
Mon 08:35:57 AM 40.1172 -80.6700 44° Northeast 387 445 10,000 -145 Descending Cleveland Center
Mon 08:36:57 AM 40.1922 -80.5750 44° Northeast 382 440 10,000  Level Cleveland Center
Mon 08:37:57 AM 40.2611 -80.4906 43° Northeast 356 410 10,000 -400 Level Cleveland Center
Mon 08:38:57 AM 40.3233 -80.4169 42° Northeast 322 371 9,200 -1,200 Descending Cleveland Center
Mon 08:39:57 AM 40.3775 -80.3433 46° Northeast 295 339 7,600 -1,500 Descending Cleveland Center
Mon 08:40:57 AM 40.4064 -80.2450 69° East 282 325 6,200 -1,400 Descending Cleveland Center
Mon 08:41:57 AM 40.4311 -80.1547 70° East 277 319 4,800 -1,250 Descending Cleveland Center
Mon 08:42:57 AM 40.4578 -80.0672 68° East 271 312 3,700 -1,100 Descending Cleveland Center

Login

Don't have an account? Register now (free) for customized features, flight alerts, and more!